createdAt,value
2022-08-28T00:03:10.590Z,11.50
2022-08-28T00:08:15.729Z,12.60
2022-08-28T00:13:21.904Z,14.20
2022-08-28T00:18:26.659Z,11.60
2022-08-28T00:23:42.206Z,12.60
2022-08-28T00:28:46.456Z,13.50
2022-08-28T00:33:49.363Z,10.40
2022-08-28T00:38:52.296Z,11.50
2022-08-28T00:44:17.349Z,12.50
2022-08-28T00:49:28.857Z,11.60
2022-08-28T00:54:59.334Z,11.60
2022-08-28T01:00:08.959Z,11.50
2022-08-28T01:05:13.821Z,11.70
2022-08-28T01:10:21.361Z,10.10
2022-08-28T01:15:35.525Z,9.30
2022-08-28T01:20:46.973Z,10.60
2022-08-28T01:25:49.840Z,13.10
2022-08-28T01:30:52.810Z,10.20
2022-08-28T01:35:56.148Z,10.00
2022-08-28T01:40:59.671Z,11.60
2022-08-28T01:46:05.877Z,12.40
2022-08-28T01:51:10.693Z,12.20
2022-08-28T01:56:16.146Z,11.60
2022-08-28T02:01:21.913Z,10.60
2022-08-28T02:06:25.934Z,12.30
2022-08-28T02:11:30.816Z,11.10
2022-08-28T02:16:34.157Z,14.60
2022-08-28T02:21:37.024Z,10.50
2022-08-28T02:26:40.153Z,9.70
2022-08-28T02:31:42.927Z,9.70
2022-08-28T02:36:45.715Z,9.00
2022-08-28T02:41:48.615Z,8.00
2022-08-28T02:46:52.881Z,9.90
2022-08-28T02:51:58.385Z,13.30
2022-08-28T02:57:01.285Z,11.90
2022-08-28T03:02:07.265Z,9.40
2022-08-28T03:07:13.722Z,10.30
2022-08-28T03:17:22.783Z,9.20
2022-08-28T03:22:44.219Z,10.40
2022-08-28T03:27:47.071Z,11.60
2022-08-28T03:32:50.161Z,11.70
2022-08-28T03:37:52.956Z,16.30
2022-08-28T03:42:55.800Z,11.60
2022-08-28T03:47:58.577Z,11.20
2022-08-28T03:53:02.737Z,8.80
2022-08-28T03:58:05.606Z,10.40
2022-08-28T04:03:09.154Z,10.70
2022-08-28T04:08:20.411Z,10.30
2022-08-28T04:13:23.798Z,10.60
2022-08-28T04:18:28.916Z,11.90
2022-08-28T04:23:31.996Z,10.60
2022-08-28T04:28:35.559Z,11.30
2022-08-28T04:33:38.686Z,8.90
2022-08-28T04:38:44.067Z,12.20
2022-08-28T04:43:47.776Z,10.00
2022-08-28T04:48:50.868Z,12.10
2022-08-28T04:53:54.261Z,9.20
2022-08-28T04:58:57.150Z,11.50
2022-08-28T05:04:02.321Z,9.30
2022-08-28T05:09:07.190Z,11.50
2022-08-28T05:14:15.743Z,8.30
2022-08-28T05:19:21.208Z,10.60
2022-08-28T05:24:24.624Z,8.50
2022-08-28T05:29:27.627Z,11.80
2022-08-28T05:34:31.875Z,9.30
2022-08-28T05:39:34.999Z,12.70
2022-08-28T05:44:37.909Z,9.60
2022-08-28T05:49:40.871Z,14.00
2022-08-28T05:54:43.710Z,8.90
2022-08-28T05:59:46.560Z,11.70
2022-08-28T06:04:50.550Z,8.30
2022-08-28T06:09:53.428Z,12.50
2022-08-28T06:14:56.444Z,10.20
2022-08-28T06:19:59.858Z,9.90
2022-08-28T06:25:05.463Z,8.60
2022-08-28T06:30:11.304Z,13.00
2022-08-28T06:35:14.167Z,10.10
2022-08-28T06:40:17.235Z,8.50
2022-08-28T06:45:20.223Z,10.80
2022-08-28T06:50:23.009Z,9.00
2022-08-28T06:55:26.987Z,7.80
2022-08-28T07:00:30.580Z,8.40
2022-08-28T07:05:34.343Z,10.80
2022-08-28T07:10:37.303Z,8.50
2022-08-28T07:15:41.921Z,9.70
2022-08-28T07:20:46.809Z,10.30
2022-08-28T07:25:51.151Z,10.40
2022-08-28T07:31:02.838Z,10.90
2022-08-28T07:36:28.851Z,10.40
2022-08-28T07:41:37.426Z,6.40
2022-08-28T07:46:40.785Z,9.00
2022-08-28T07:51:46.864Z,7.90
2022-08-28T07:56:50.709Z,10.60
2022-08-28T08:01:54.731Z,9.20
2022-08-28T08:12:01.501Z,7.50
2022-08-28T08:17:07.330Z,10.00
2022-08-28T08:22:10.590Z,9.70
2022-08-28T08:32:16.283Z,9.50
2022-08-28T08:37:19.519Z,12.00
2022-08-28T08:42:30.312Z,9.40
2022-08-28T08:47:39.083Z,7.60
2022-08-28T08:53:00.647Z,7.70
2022-08-28T08:58:28.095Z,6.70
2022-08-28T09:03:47.687Z,7.80
2022-08-28T09:08:59.489Z,8.30
2022-08-28T09:14:27.111Z,9.60
2022-08-28T09:19:33.087Z,6.60
2022-08-28T09:24:41.378Z,9.40
2022-08-28T09:30:09.132Z,7.30
2022-08-28T09:35:24.330Z,8.70
2022-08-28T09:40:52.109Z,8.50
2022-08-28T09:46:32.086Z,8.10
2022-08-28T09:51:38.771Z,7.90
2022-08-28T09:56:45.306Z,9.70
2022-08-28T10:02:20.577Z,7.40
2022-08-28T10:07:42.108Z,7.40
2022-08-28T10:13:11.942Z,7.20
2022-08-28T10:18:26.760Z,8.60
2022-08-28T10:23:54.513Z,7.50
2022-08-28T10:29:27.258Z,6.00
2022-08-28T10:35:08.050Z,6.70
2022-08-28T10:40:21.980Z,8.30
2022-08-28T10:45:26.530Z,7.00
2022-08-28T10:50:40.925Z,10.00
2022-08-28T10:56:07.599Z,8.90
2022-08-28T11:01:25.973Z,7.70
2022-08-28T11:06:41.410Z,7.30
2022-08-28T11:11:49.304Z,11.60
2022-08-28T11:16:54.695Z,6.80
2022-08-28T11:22:03.381Z,8.30
2022-08-28T11:27:29.660Z,8.30
2022-08-28T11:32:55.333Z,11.20
2022-08-28T11:37:58.717Z,9.70
2022-08-28T11:43:17.488Z,8.60
2022-08-28T11:48:25.005Z,8.70
2022-08-28T11:53:57.332Z,10.30
2022-08-28T11:59:35.727Z,11.00
2022-08-28T12:04:43.459Z,7.70
2022-08-28T12:09:49.145Z,9.00
2022-08-28T12:14:55.230Z,10.90
2022-08-28T12:20:10.843Z,9.10
2022-08-28T12:25:28.352Z,8.80
2022-08-28T12:30:48.253Z,9.20
2022-08-28T12:35:51.323Z,11.30
2022-08-28T12:40:57.749Z,8.30
2022-08-28T12:46:19.787Z,11.60
2022-08-28T12:51:29.926Z,8.90
2022-08-28T12:56:39.582Z,7.40
2022-08-28T13:01:42.792Z,11.70
2022-08-28T13:06:45.839Z,8.70
2022-08-28T13:11:51.631Z,10.10
2022-08-28T13:16:55.183Z,10.30
2022-08-28T13:22:08.747Z,10.10
2022-08-28T13:27:15.163Z,9.10
2022-08-28T13:32:19.134Z,9.00
2022-08-28T13:37:49.230Z,10.40
2022-08-28T13:42:59.476Z,7.60
2022-08-28T13:48:02.823Z,9.00
2022-08-28T13:53:09.439Z,8.20
2022-08-28T13:58:14.122Z,8.40
2022-08-28T14:03:35.560Z,6.90
2022-08-28T14:08:41.124Z,8.50
2022-08-28T14:13:47.294Z,8.20
2022-08-28T14:19:04.790Z,8.90
2022-08-28T14:24:08.360Z,9.20
2022-08-28T14:29:16.243Z,8.10
2022-08-28T14:34:22.644Z,9.00
2022-08-28T14:39:28.175Z,7.30
2022-08-28T14:44:32.298Z,10.70
2022-08-28T14:49:39.845Z,10.10
2022-08-28T14:54:42.910Z,10.30
2022-08-28T14:59:45.965Z,8.50
2022-08-28T15:04:48.779Z,11.20
2022-08-28T15:09:51.878Z,12.50
2022-08-28T15:14:57.168Z,10.10
2022-08-28T15:20:01.133Z,10.50
2022-08-28T15:25:05.993Z,9.00
2022-08-28T15:30:09.516Z,10.30
2022-08-28T15:35:13.354Z,11.20
2022-08-28T15:40:36.993Z,8.50
2022-08-28T15:45:42.037Z,9.50
2022-08-28T15:55:50.664Z,11.40
2022-08-28T16:00:53.622Z,10.10
2022-08-28T16:05:58.758Z,15.40
2022-08-28T16:11:01.732Z,10.90
2022-08-28T16:16:04.742Z,10.40
2022-08-28T16:21:08.579Z,15.00
2022-08-28T16:26:12.326Z,14.10
2022-08-28T16:31:19.205Z,11.10
2022-08-28T16:36:25.595Z,10.10
2022-08-28T16:41:29.646Z,14.10
2022-08-28T16:46:34.977Z,9.50
2022-08-28T16:51:40.613Z,11.50
2022-08-28T16:56:45.352Z,12.90
2022-08-28T17:01:53.033Z,14.30
2022-08-28T17:06:57.628Z,13.90
2022-08-28T17:12:00.462Z,14.10
2022-08-28T17:17:04.501Z,15.90
2022-08-28T17:22:27.420Z,14.80
2022-08-28T17:27:32.335Z,17.10
2022-08-28T17:32:36.038Z,17.50
2022-08-28T17:37:40.788Z,12.80
2022-08-28T17:42:45.741Z,19.00
2022-08-28T17:47:48.564Z,13.60
2022-08-28T17:52:52.002Z,20.00
2022-08-28T17:57:55.175Z,15.60
2022-08-28T18:02:58.387Z,15.10
2022-08-28T18:08:01.292Z,15.10
2022-08-28T18:13:06.772Z,18.20
2022-08-28T18:18:13.486Z,17.20
2022-08-28T18:23:17.389Z,15.90
2022-08-28T18:28:24.652Z,16.70
2022-08-28T18:33:27.873Z,16.60
2022-08-28T18:38:35.270Z,19.30
2022-08-28T18:43:38.377Z,13.30
2022-08-28T18:48:42.455Z,13.40
2022-08-28T18:53:45.306Z,17.40
2022-08-28T18:58:50.315Z,14.30
2022-08-28T19:03:56.083Z,13.10
2022-08-28T19:08:59.268Z,14.30
2022-08-28T19:14:03.876Z,14.80
2022-08-28T19:19:08.958Z,13.50
2022-08-28T19:24:16.984Z,15.90
2022-08-28T19:29:20.392Z,12.90
2022-08-28T19:34:23.879Z,14.10
2022-08-28T19:39:28.023Z,13.50
2022-08-28T19:44:30.995Z,11.40
2022-08-28T19:49:34.522Z,12.90
2022-08-28T19:54:38.878Z,10.10
2022-08-28T19:59:43.580Z,16.00
2022-08-28T20:04:47.999Z,14.10
2022-08-28T20:09:52.042Z,13.70
2022-08-28T20:14:54.863Z,13.50
2022-08-28T20:20:02.472Z,14.90
2022-08-28T20:25:09.953Z,12.80
2022-08-28T20:30:14.496Z,13.30
2022-08-28T20:35:22.059Z,12.50
2022-08-28T20:40:27.627Z,13.10
2022-08-28T20:45:32.118Z,12.00
2022-08-28T20:50:34.945Z,12.70
2022-08-28T20:55:39.356Z,11.30
2022-08-28T21:00:45.093Z,11.50
2022-08-28T21:10:54.027Z,11.50
2022-08-28T21:15:56.930Z,9.70
2022-08-28T21:20:59.756Z,9.60
2022-08-28T21:26:07.244Z,12.00
2022-08-28T21:31:11.753Z,10.50
2022-08-28T21:36:18.203Z,11.80
2022-08-28T21:41:20.957Z,10.70
2022-08-28T21:46:24.580Z,9.70
2022-08-28T21:51:27.716Z,12.30
2022-08-28T21:56:31.398Z,10.70
2022-08-28T22:01:34.444Z,9.00
2022-08-28T22:06:37.467Z,7.70
2022-08-28T22:11:41.547Z,6.80
2022-08-28T22:16:44.943Z,7.80
2022-08-28T22:22:06.462Z,7.80
2022-08-28T22:27:11.196Z,8.60
2022-08-28T22:32:15.410Z,8.70
2022-08-28T22:37:18.361Z,10.60
2022-08-28T22:42:21.407Z,7.40
2022-08-28T22:47:24.227Z,8.30
2022-08-28T22:52:27.256Z,7.50
2022-08-28T22:57:30.121Z,8.60
2022-08-28T23:02:33.151Z,8.10
2022-08-28T23:07:37.113Z,10.10
2022-08-28T23:12:40.854Z,7.90
2022-08-28T23:17:44.511Z,6.00
2022-08-28T23:22:48.601Z,9.30
2022-08-28T23:27:53.552Z,10.30
2022-08-28T23:32:56.419Z,9.60
2022-08-28T23:37:59.273Z,10.60
2022-08-28T23:43:04.207Z,9.00
2022-08-28T23:48:08.327Z,11.40
2022-08-28T23:53:11.593Z,8.20
2022-08-28T23:58:14.656Z,8.00
